Time;durP1;ratioP1;P1;durP2;ratioP2;P2;SDS_P1;SDS_P2;PMS_P1;PMS_P2;Temp;Humidity;BMP_temperature;BMP_pressure;BME280_temperature;BME280_humidity;BME280_pressure;Samples;Min_cycle;Max_cycle;Signal;HPM_P1;HPM_P2
2022/09/06 00:01:13;;;;;;;8.27;1.77;;;;;;;14.99;37.00;101638.41;5090716;28;20082;-69
2022/09/06 00:03:40;;;;;;;7.25;1.80;;;;;;;14.98;37.03;101631.31;5089845;28;20122;-69
2022/09/06 00:06:09;;;;;;;6.80;1.80;;;;;;;14.86;37.54;101634.50;5091118;28;20101;-69
2022/09/06 00:08:35;;;;;;;3.95;1.52;;;;;;;14.75;37.24;101632.97;5086371;28;20115;-69
2022/09/06 00:11:02;;;;;;;6.82;1.80;;;;;;;15.05;36.96;101627.91;5090706;28;20098;-69
2022/09/06 00:13:29;;;;;;;3.30;1.40;;;;;;;14.90;37.27;101627.75;5090586;28;20048;-69
2022/09/06 00:15:56;;;;;;;10.07;1.80;;;;;;;14.88;37.35;101627.94;5089884;28;20443;-69
2022/09/06 00:18:22;;;;;;;4.68;1.55;;;;;;;15.00;37.05;101631.13;5089693;28;20058;-69
2022/09/06 00:20:49;;;;;;;5.88;1.45;;;;;;;14.84;37.21;101633.81;5086121;28;20043;-69
2022/09/06 00:23:15;;;;;;;11.13;1.77;;;;;;;14.88;37.23;101633.31;5086696;28;20083;-69
2022/09/06 00:25:42;;;;;;;10.32;1.50;;;;;;;14.78;37.16;101624.53;5089993;28;20060;-69
2022/09/06 00:28:08;;;;;;;7.70;1.75;;;;;;;14.69;37.53;101620.09;5089396;28;20127;-69
2022/09/06 00:30:35;;;;;;;4.20;1.50;;;;;;;14.79;36.87;101623.50;5090636;28;20054;-69
2022/09/06 00:33:02;;;;;;;4.15;1.73;;;;;;;14.55;37.57;101626.97;5090131;28;20475;-69
2022/09/06 00:35:28;;;;;;;5.47;1.83;;;;;;;14.48;37.57;101628.63;5088914;28;20134;-69
2022/09/06 00:37:57;;;;;;;4.70;1.50;;;;;;;14.46;37.25;101619.84;5089384;28;20101;-69
2022/09/06 00:40:24;;;;;;;3.90;1.20;;;;;;;14.32;37.63;101617.75;5089198;28;20075;-68
2022/09/06 00:42:50;;;;;;;8.05;1.20;;;;;;;14.36;37.58;101624.53;5084768;28;20103;-68
2022/09/06 00:45:18;;;;;;;2.70;1.23;;;;;;;14.47;37.42;101621.56;5089503;28;20457;-68
2022/09/06 00:47:44;;;;;;;2.67;1.10;;;;;;;14.57;37.08;101626.81;5088585;28;20050;-68
2022/09/06 00:50:14;;;;;;;5.45;1.42;;;;;;;14.29;37.49;101627.06;5089907;28;20509;-68
2022/09/06 00:52:44;;;;;;;10.20;1.25;;;;;;;14.58;37.15;101623.09;5089027;28;20132;-68
2022/09/06 00:55:11;;;;;;;5.72;1.60;;;;;;;14.42;37.37;101626.56;5089618;28;20063;-68
2022/09/06 00:57:38;;;;;;;17.08;1.88;;;;;;;14.47;37.55;101622.38;5088705;28;20048;-68
2022/09/06 01:00:07;;;;;;;7.47;1.35;;;;;;;14.37;37.62;101632.47;5092404;28;20551;-68
2022/09/06 01:02:35;;;;;;;9.68;1.50;;;;;;;14.42;37.69;101630.13;5092057;28;20067;-68
2022/09/06 01:08:48;;;;;;;7.65;1.40;;;;;;;14.17;37.89;101621.09;5093301;28;20098;-69
2022/09/06 01:11:36;;;;;;;5.53;1.58;;;;;;;14.15;38.01;101627.66;5091180;28;20044;-68
2022/09/06 01:14:02;;;;;;;6.07;1.40;;;;;;;14.08;37.93;101630.16;5089408;28;20164;-68
2022/09/06 01:17:01;;;;;;;8.75;1.35;;;;;;;14.01;38.11;101621.88;5090890;28;20441;-68
2022/09/06 01:19:45;;;;;;;3.05;1.05;;;;;;;14.11;37.67;101620.88;5090911;28;20063;-68
2022/09/06 01:22:48;;;;;;;6.90;1.50;;;;;;;13.85;38.25;101623.63;5092493;28;20400;-68
2022/09/06 01:25:33;;;;;;;;;;;;;;;13.92;38.22;101617.44;5086048;28;20044;-68
2022/09/06 01:28:36;;;;;;;4.88;1.20;;;;;;;13.83;38.33;101618.38;5091181;28;19920;-68
2022/09/06 01:31:24;;;;;;;4.20;1.33;;;;;;;13.85;38.54;101615.53;5090984;28;20616;-68
2022/09/06 01:34:02;;;;;;;11.55;1.20;;;;;;;13.88;38.09;101615.22;5092463;28;20040;-68
2022/09/06 01:36:37;;;;;;;6.80;1.20;;;;;;;13.93;37.87;101611.03;5092132;28;20382;-68
2022/09/06 01:39:32;;;;;;;2.28;1.02;;;;;;;13.87;38.28;101608.97;5092474;28;20044;-69
2022/09/06 01:42:04;;;;;;;6.05;1.17;;;;;;;13.89;38.23;101612.34;5092554;28;20058;-68
2022/09/06 01:44:32;;;;;;;6.03;1.40;;;;;;;13.96;38.05;101608.00;5092052;28;20044;-68
2022/09/06 01:47:20;;;;;;;4.40;1.13;;;;;;;13.73;38.61;101604.13;5091608;28;20075;-69
2022/09/06 01:49:56;;;;;;;7.57;1.33;;;;;;;13.69;38.71;101606.28;5091963;28;20039;-69
2022/09/06 01:52:31;;;;;;;4.05;1.50;;;;;;;13.83;38.50;101603.03;5081274;28;20068;-69
2022/09/06 01:55:19;;;;;;;5.85;1.20;;;;;;;13.78;38.59;101610.78;5091475;28;20071;-69
2022/09/06 01:58:10;;;;;;;1.55;1.00;;;;;;;13.80;38.61;101600.69;5092503;28;20543;-68
2022/09/06 02:01:02;;;;;;;5.72;1.00;;;;;;;13.65;39.06;101601.41;5092073;28;20047;-68
2022/09/06 02:03:57;;;;;;;5.30;1.40;;;;;;;13.69;38.73;101597.38;5092000;28;20127;-68
2022/09/06 02:06:31;;;;;;;4.68;1.17;;;;;;;13.85;38.52;101607.44;5091551;28;20044;-68
2022/09/06 02:09:21;;;;;;;3.83;1.42;;;;;;;13.82;38.72;101606.75;5091962;28;20122;-68
2022/09/06 02:12:03;;;;;;;6.40;1.45;;;;;;;13.72;38.69;101605.97;5091700;28;20040;-68
2022/09/06 02:14:43;;;;;;;4.10;1.00;;;;;;;13.69;38.87;101589.28;5074070;28;20068;-68
2022/09/06 02:17:16;;;;;;;6.22;1.63;;;;;;;13.79;38.80;101601.66;5090550;28;20127;-68
2022/09/06 02:19:48;;;;;;;3.38;1.17;;;;;;;13.85;38.58;101597.50;5091234;28;20067;-68
2022/09/06 02:22:20;;;;;;;8.77;1.48;;;;;;;13.79;38.72;101604.38;5090153;28;20496;-68
2022/09/06 02:24:48;;;;;;;;;;;;;;;13.70;38.94;101602.63;5092078;28;20123;-68
2022/09/06 02:27:15;;;;;;;4.22;1.15;;;;;;;13.59;39.24;101598.34;5090291;28;20006;-68
2022/09/06 02:29:41;;;;;;;7.25;1.30;;;;;;;13.80;38.83;101598.00;5091825;28;20054;-68
2022/09/06 02:32:22;;;;;;;4.53;1.30;;;;;;;13.82;38.74;101595.97;5081831;28;20044;-68
2022/09/06 02:34:54;;;;;;;5.60;1.42;;;;;;;13.74;39.26;101592.34;5091389;28;20455;-68
2022/09/06 02:37:24;;;;;;;4.70;1.58;;;;;;;13.65;39.42;101602.22;5090942;28;20067;-68
2022/09/06 02:39:54;;;;;;;6.30;1.08;;;;;;;13.59;39.52;101605.56;5090637;28;20045;-68
2022/09/06 02:42:23;;;;;;;8.32;1.27;;;;;;;13.72;39.16;101592.50;5090861;28;20048;-68
2022/09/06 02:44:49;;;;;;;6.35;1.25;;;;;;;13.59;39.52;101598.34;5090912;28;20124;-69
2022/09/06 02:47:16;;;;;;;3.38;1.20;;;;;;;13.61;39.56;101591.94;5091762;28;20119;-68
2022/09/06 02:49:43;;;;;;;4.38;1.25;;;;;;;13.56;39.71;101603.19;5091992;28;20079;-70
2022/09/06 02:52:09;;;;;;;5.63;1.40;;;;;;;13.68;39.69;101604.63;5091174;28;20067;-69
2022/09/06 02:54:36;;;;;;;8.15;1.25;;;;;;;13.62;39.79;101597.16;5091567;28;20452;-69
2022/09/06 02:57:02;;;;;;;2.97;1.33;;;;;;;13.34;40.33;101597.31;5091235;28;20075;-69
2022/09/06 02:59:29;;;;;;;8.25;1.13;;;;;;;13.37;40.48;101593.47;5090988;28;20063;-69
2022/09/06 03:01:55;;;;;;;3.67;1.10;;;;;;;13.27;40.70;101598.94;5091002;28;20126;-69
2022/09/06 03:04:22;;;;;;;5.97;1.10;;;;;;;13.35;40.66;101600.84;5085468;28;20072;-69
2022/09/06 03:06:49;;;;;;;4.75;1.30;;;;;;;13.27;41.01;101588.16;5090845;28;20066;-69
2022/09/06 03:09:15;;;;;;;9.05;1.30;;;;;;;13.33;41.04;101592.94;5090816;28;20131;-69
2022/09/06 03:11:42;;;;;;;3.67;1.00;;;;;;;13.26;41.29;101597.25;5091381;28;20070;-69
2022/09/06 03:14:08;;;;;;;4.38;1.20;;;;;;;13.44;40.84;101589.13;5086139;28;20044;-69
2022/09/06 03:16:37;;;;;;;11.52;1.42;;;;;;;13.22;41.41;101601.25;5091591;28;20147;-69
2022/09/06 03:19:03;;;;;;;4.85;1.40;;;;;;;13.31;41.66;101592.22;5090582;28;20048;-69
2022/09/06 03:21:30;;;;;;;4.18;1.67;;;;;;;13.52;41.46;101589.16;5088955;28;20048;-69
2022/09/06 03:23:58;;;;;;;5.18;1.42;;;;;;;13.38;41.43;101586.22;5090890;28;20040;-69
2022/09/06 03:26:24;;;;;;;6.80;1.00;;;;;;;13.17;41.99;101586.56;5091126;28;20492;-69
2022/09/06 03:28:51;;;;;;;7.03;1.17;;;;;;;13.24;42.02;101593.84;5090156;28;20123;-69
2022/09/06 03:31:17;;;;;;;2.17;1.20;;;;;;;13.27;42.26;101590.84;5091772;28;20126;-69
2022/09/06 03:33:44;;;;;;;5.22;1.45;;;;;;;13.33;41.91;101584.00;5086660;28;20480;-69
2022/09/06 03:36:10;;;;;;;5.15;1.10;;;;;;;13.32;41.91;101577.75;5089936;28;20094;-69
2022/09/06 03:38:37;;;;;;;10.43;1.48;;;;;;;13.03;42.79;101577.19;5089517;28;20074;-69
2022/09/06 03:41:05;;;;;;;4.85;1.55;;;;;;;13.10;42.77;101583.63;5090297;28;20537;-69
2022/09/06 03:43:31;;;;;;;8.93;1.30;;;;;;;13.12;43.10;101578.97;5090414;28;20468;-69
2022/09/06 03:45:58;;;;;;;8.18;1.60;;;;;;;13.11;42.85;101585.31;5083300;28;20040;-69
2022/09/06 03:48:28;;;;;;;7.88;1.60;;;;;;;13.19;42.99;101585.41;5090599;28;20071;-69
2022/09/06 03:50:56;;;;;;;3.85;1.40;;;;;;;12.88;43.72;101582.28;5084038;28;20056;-68
2022/09/06 03:53:25;;;;;;;2.13;1.10;;;;;;;13.02;43.55;101578.19;5090186;28;20119;-69
2022/09/06 03:55:54;;;;;;;3.75;1.45;;;;;;;12.90;43.92;101568.66;5086518;28;20123;-69
2022/09/06 03:58:22;;;;;;;7.68;1.30;;;;;;;13.14;43.55;101576.94;5089998;28;20056;-69
2022/09/06 04:00:58;;;;;;;3.65;1.58;;;;;;;12.89;43.86;101575.88;5090144;28;20546;-69
2022/09/06 04:03:24;;;;;;;3.00;1.35;;;;;;;13.13;43.63;101580.63;5090019;28;20097;-69
2022/09/06 04:05:51;;;;;;;4.82;1.33;;;;;;;13.02;43.78;101575.50;5072186;28;20540;-69
2022/09/06 04:08:17;;;;;;;4.25;1.20;;;;;;;12.84;44.26;101568.28;5091090;28;20071;-69
2022/09/06 04:10:44;;;;;;;9.90;1.20;;;;;;;13.09;44.25;101571.19;5090878;28;20123;-69
2022/09/06 04:13:10;;;;;;;3.20;1.40;;;;;;;13.01;44.07;101577.34;5090554;28;20127;-69
2022/09/06 04:15:37;;;;;;;11.63;1.40;;;;;;;12.74;44.79;101572.91;5071752;28;20126;-69
2022/09/06 04:18:03;;;;;;;6.43;1.75;;;;;;;12.87;44.23;101572.53;5089862;28;20052;-69
2022/09/06 04:20:34;;;;;;;7.43;1.40;;;;;;;12.80;44.74;101572.28;5086526;28;20076;-69
2022/09/06 04:23:01;;;;;;;5.82;1.10;;;;;;;12.84;44.41;101565.59;5078517;28;20047;-69
2022/09/06 04:25:27;;;;;;;5.05;1.48;;;;;;;12.72;45.08;101569.47;5078601;28;20222;-69
2022/09/06 04:27:54;;;;;;;11.75;1.73;;;;;;;12.79;44.92;101570.56;5088482;28;20044;-69
2022/09/06 04:30:20;;;;;;;6.28;1.73;;;;;;;12.72;45.21;101563.25;5090008;28;20121;-69
2022/09/06 04:32:47;;;;;;;12.63;1.60;;;;;;;12.87;44.77;101570.66;5092702;28;20127;-69
2022/09/06 04:35:13;;;;;;;3.58;1.55;;;;;;;12.95;44.57;101572.59;5094241;28;20138;-69
2022/09/06 04:37:40;;;;;;;5.80;1.60;;;;;;;12.72;45.04;101568.63;5093164;28;20115;-69
2022/09/06 04:40:07;;;;;;;9.10;1.33;;;;;;;12.70;45.27;101560.72;5094678;28;20052;-69
2022/09/06 04:42:34;;;;;;;3.67;1.65;;;;;;;12.52;45.79;101554.47;5093456;28;20488;-69
2022/09/06 04:45:01;;;;;;;5.93;1.33;;;;;;;12.48;45.88;101548.53;5093831;28;20089;-69
2022/09/06 04:47:27;;;;;;;3.85;1.20;;;;;;;12.46;46.10;101547.03;5093841;28;20500;-69
2022/09/06 04:49:54;;;;;;;5.40;1.48;;;;;;;12.68;45.66;101546.56;5092331;28;20048;-69
2022/09/06 04:52:20;;;;;;;6.75;1.83;;;;;;;12.54;45.93;101552.47;5092673;28;20059;-67
2022/09/06 04:54:47;;;;;;;3.83;1.30;;;;;;;12.83;45.32;101550.44;5094166;28;20071;-68
2022/09/06 04:57:13;;;;;;;4.57;1.20;;;;;;;12.61;45.63;101548.16;5092895;28;20131;-67
2022/09/06 04:59:40;;;;;;;3.67;1.48;;;;;;;12.67;45.63;101550.25;5083283;28;20135;-67
2022/09/06 05:02:06;;;;;;;4.72;1.83;;;;;;;12.55;46.25;101551.47;5092286;28;20520;-68
2022/09/06 05:04:33;;;;;;;3.13;1.10;;;;;;;12.70;45.92;101549.94;5093476;28;20055;-68
2022/09/06 05:07:04;;;;;;;3.50;1.52;;;;;;;12.65;45.85;101546.84;5093145;28;20163;-69
2022/09/06 05:09:32;;;;;;;6.70;1.70;;;;;;;12.83;45.29;101536.97;5092254;28;20403;-69
2022/09/06 05:11:59;;;;;;;2.60;1.30;;;;;;;12.75;45.64;101536.88;5092796;28;20135;-69
2022/09/06 05:14:27;;;;;;;7.85;1.90;;;;;;;12.64;46.01;101537.09;5092513;28;20070;-69
2022/09/06 05:16:54;;;;;;;6.90;1.45;;;;;;;12.71;45.84;101538.16;5092460;28;20101;-69
2022/09/06 05:19:21;;;;;;;7.18;1.63;;;;;;;12.57;45.94;101531.47;5093192;28;20052;-69
2022/09/06 05:21:49;;;;;;;3.33;1.35;;;;;;;12.92;45.15;101539.72;5092956;28;20064;-67
2022/09/06 05:24:16;;;;;;;7.90;1.77;;;;;;;12.87;45.56;101530.28;5093299;28;20043;-69
2022/09/06 05:26:42;;;;;;;9.32;1.45;;;;;;;12.99;45.24;101538.09;5092650;28;20483;-68
2022/09/06 05:29:09;;;;;;;7.28;1.60;;;;;;;12.56;45.98;101535.19;5083315;28;20400;-67
2022/09/06 05:31:35;;;;;;;5.85;1.70;;;;;;;12.96;45.33;101543.78;5092476;28;20040;-68
2022/09/06 05:34:02;;;;;;;13.10;1.48;;;;;;;12.75;45.67;101541.44;5092255;28;20075;-68
2022/09/06 05:36:29;;;;;;;7.22;1.35;;;;;;;12.93;45.59;101536.03;5093567;28;20463;-69
2022/09/06 05:38:57;;;;;;;8.50;1.48;;;;;;;12.82;45.72;101542.50;5092394;28;20063;-68
2022/09/06 05:41:24;;;;;;;14.35;1.63;;;;;;;12.93;45.56;101546.78;5092130;28;20135;-69
2022/09/06 05:43:51;;;;;;;3.45;1.48;;;;;;;13.25;44.84;101548.88;5093993;28;20138;-68
2022/09/06 05:46:18;;;;;;;2.67;1.70;;;;;;;13.26;44.60;101556.00;5092816;28;20480;-69
2022/09/06 05:48:54;;;;;;;5.75;1.55;;;;;;;13.45;44.30;101561.16;5092173;28;20048;-69
2022/09/06 05:51:21;;;;;;;10.45;1.70;;;;;;;13.40;44.14;101565.34;5092211;28;20113;-67
2022/09/06 05:53:47;;;;;;;3.53;1.50;;;;;;;13.47;44.20;101558.31;5092285;28;20122;-68
2022/09/06 05:56:14;;;;;;;14.20;1.75;;;;;;;13.34;44.64;101554.19;5092404;28;20193;-69
2022/09/06 05:58:41;;;;;;;5.45;1.40;;;;;;;13.49;44.24;101550.91;5088470;28;20459;-68
2022/09/06 06:01:19;;;;;;;8.20;1.77;;;;;;;13.39;44.18;101550.16;5083901;28;20098;-69
2022/09/06 06:04:04;;;;;;;6.70;1.70;;;;;;;13.63;43.62;101547.63;5091822;28;20098;-69
2022/09/06 06:06:32;;;;;;;3.38;1.55;;;;;;;13.55;43.75;101534.09;5092031;28;20127;-69
2022/09/06 06:08:59;;;;;;;6.78;1.58;;;;;;;13.32;44.42;101531.13;5091287;28;20094;-69
2022/09/06 06:11:27;;;;;;;5.85;1.80;;;;;;;13.68;43.55;101525.56;5093319;28;20070;-69
2022/09/06 06:13:53;;;;;;;8.43;1.83;;;;;;;13.42;44.11;101526.44;5086383;28;20474;-69
2022/09/06 06:16:21;;;;;;;3.83;1.63;;;;;;;13.43;44.05;101524.59;5091698;28;20044;-69
2022/09/06 06:18:48;;;;;;;5.95;1.63;;;;;;;13.65;43.80;101517.81;5091397;28;20044;-69
2022/09/06 06:21:20;;;;;;;6.03;1.20;;;;;;;13.57;44.07;101521.31;5091296;28;20056;-68
2022/09/06 06:23:53;;;;;;;4.40;1.30;;;;;;;13.66;43.66;101522.19;5090690;28;20123;-68
2022/09/06 06:26:21;;;;;;;9.77;2.08;;;;;;;13.70;43.64;101537.91;5090980;28;20523;-68
2022/09/06 06:28:47;;;;;;;6.95;1.58;;;;;;;13.57;43.48;101535.63;5091500;28;20143;-68
2022/09/06 06:31:14;;;;;;;4.35;1.48;;;;;;;14.04;42.72;101539.75;5091409;28;20044;-68
2022/09/06 06:33:41;;;;;;;4.97;1.63;;;;;;;14.29;42.42;101543.38;5091390;28;20044;-68
2022/09/06 06:36:13;;;;;;;10.88;2.15;;;;;;;14.11;42.45;101543.47;5091382;28;20492;-68
2022/09/06 06:38:43;;;;;;;9.65;1.65;;;;;;;14.62;41.79;101535.34;5091043;28;20122;-69
2022/09/06 06:41:11;;;;;;;13.52;1.60;;;;;;;14.63;41.60;101537.84;5089571;28;20134;-70
2022/09/06 06:43:38;;;;;;;6.57;1.83;;;;;;;14.42;41.95;101538.31;5091365;28;20127;-69
2022/09/06 06:46:15;;;;;;;7.43;1.70;;;;;;;14.74;41.10;101529.47;5090648;28;20404;-68
2022/09/06 06:48:43;;;;;;;10.88;1.80;;;;;;;14.95;40.93;101522.72;5091156;28;20050;-69
2022/09/06 06:51:11;;;;;;;8.25;1.33;;;;;;;15.05;40.66;101518.00;5091421;28;20051;-69
2022/09/06 06:53:38;;;;;;;7.45;2.13;;;;;;;15.22;40.36;101519.66;5091862;28;20075;-69
2022/09/06 06:56:23;;;;;;;6.05;1.38;;;;;;;15.00;40.55;101523.06;5089140;28;20090;-69
2022/09/06 06:58:52;;;;;;;5.70;1.80;;;;;;;15.27;40.28;101521.00;5090231;28;20068;-69
2022/09/06 07:01:20;;;;;;;5.18;1.80;;;;;;;15.44;39.74;101515.38;5091227;28;20087;-70
2022/09/06 07:03:48;;;;;;;11.75;1.80;;;;;;;16.16;38.71;101512.59;5090685;28;20036;-69
2022/09/06 07:06:15;;;;;;;3.17;1.45;;;;;;;16.07;38.78;101513.63;5091900;28;20075;-69
2022/09/06 07:08:42;;;;;;;7.13;1.65;;;;;;;15.98;38.84;101512.00;5085941;28;20562;-70
2022/09/06 07:11:11;;;;;;;13.23;1.83;;;;;;;15.80;39.14;101511.41;5091276;28;20127;-69
2022/09/06 07:13:37;;;;;;;6.53;1.92;;;;;;;16.07;38.81;101519.06;5090523;28;20142;-70
2022/09/06 07:16:17;;;;;;;3.65;1.70;;;;;;;16.50;38.14;101521.31;5086939;28;20091;-70
2022/09/06 07:18:44;;;;;;;5.45;2.15;;;;;;;16.87;37.67;101520.56;5090874;28;20126;-70
2022/09/06 07:21:12;;;;;;;4.75;1.80;;;;;;;16.92;37.75;101523.59;5091923;28;20126;-70
2022/09/06 07:23:59;;;;;;;12.70;2.05;;;;;;;17.67;35.99;101521.84;5070029;28;20051;-70
2022/09/06 07:26:36;;;;;;;6.18;2.90;;;;;;;17.70;36.51;101529.59;5069690;28;20074;-70
2022/09/06 07:29:04;;;;;;;10.57;2.20;;;;;;;17.62;36.63;101525.13;5070048;28;20048;-70
2022/09/06 07:31:32;;;;;;;4.93;2.20;;;;;;;17.12;37.32;101530.16;5070673;28;20050;-70
2022/09/06 07:34:19;;;;;;;6.32;2.03;;;;;;;17.35;37.18;101530.16;5069747;28;20051;-69
2022/09/06 07:36:46;;;;;;;11.07;2.75;;;;;;;17.16;37.49;101540.66;5069917;28;20064;-69
2022/09/06 07:39:13;;;;;;;8.70;2.10;;;;;;;17.92;36.14;101530.50;5069532;28;20045;-70
2022/09/06 07:41:39;;;;;;;7.90;3.05;;;;;;;17.94;35.94;101528.47;5069949;28;20036;-70
2022/09/06 07:44:06;;;;;;;6.43;2.00;;;;;;;17.29;37.35;101530.00;5070682;28;20048;-69
2022/09/06 07:46:32;;;;;;;6.45;2.65;;;;;;;17.43;37.21;101525.66;5065965;28;20124;-69
2022/09/06 07:48:59;;;;;;;8.52;2.05;;;;;;;17.08;37.54;101512.59;5072099;28;20036;-69
2022/09/06 07:52:27;;;;;;;7.43;1.90;;;;;;;-149.70;100.00;63222.41;5069803;28;20552;-69
2022/09/06 07:55:13;;;;;;;12.10;2.05;;;;;;;17.46;37.22;101503.59;5069374;28;20048;-70
2022/09/06 07:57:40;;;;;;;6.80;2.15;;;;;;;16.97;38.30;101510.31;5070021;28;20071;-70
2022/09/06 08:00:09;;;;;;;4.10;2.00;;;;;;;16.88;38.32;101509.53;5063844;28;20044;-68
2022/09/06 08:02:35;;;;;;;5.03;2.13;;;;;;;16.76;38.91;101510.19;5068748;28;20535;-69
2022/09/06 08:05:02;;;;;;;6.03;2.03;;;;;;;16.47;39.65;101509.00;5070672;28;20065;-69
2022/09/06 08:07:50;;;;;;;11.93;2.35;;;;;;;16.86;38.71;101514.31;5069646;28;20477;-69
2022/09/06 08:10:36;;;;;;;4.30;2.08;;;;;;;16.67;39.69;101512.94;5073419;28;20128;-66
2022/09/06 08:13:03;;;;;;;14.07;2.22;;;;;;;16.92;39.85;101518.19;5073811;28;20068;-69
2022/09/06 08:15:32;;;;;;;9.02;2.30;;;;;;;16.47;39.96;101511.72;5074440;28;20480;-68
2022/09/06 08:17:59;;;;;;;15.27;3.25;;;;;;;16.41;40.83;101518.69;5074247;28;20076;-69
2022/09/06 08:20:25;;;;;;;4.72;2.15;;;;;;;16.61;40.65;101519.09;5074067;28;20448;-69
2022/09/06 08:22:52;;;;;;;6.07;2.00;;;;;;;16.63;40.72;101519.75;5088282;28;20054;-68
2022/09/06 08:25:18;;;;;;;7.63;2.13;;;;;;;17.01;40.11;101527.91;5114517;28;20044;-69
2022/09/06 08:27:44;;;;;;;3.40;1.80;;;;;;;16.92;39.90;101531.72;5114955;28;20476;-69
2022/09/06 08:30:11;;;;;;;11.45;2.80;;;;;;;17.43;39.33;101529.22;5113699;28;20071;-69
2022/09/06 08:32:39;;;;;;;5.65;2.22;;;;;;;17.67;38.61;101532.69;5114219;28;20122;-68
2022/09/06 08:35:06;;;;;;;10.07;2.45;;;;;;;17.81;38.42;101531.84;5114133;28;20381;-70
2022/09/06 08:37:33;;;;;;;6.43;2.80;;;;;;;18.23;38.04;101522.16;5114348;28;20079;-69
2022/09/06 08:39:59;;;;;;;9.82;2.75;;;;;;;18.25;37.74;101520.09;5114825;28;20131;-70
2022/09/06 08:42:26;;;;;;;7.78;2.30;;;;;;;18.35;37.70;101514.34;5114542;28;20391;-70
2022/09/06 08:44:56;;;;;;;9.10;2.80;;;;;;;18.32;37.93;101512.84;5110064;28;20051;-70
2022/09/06 08:47:24;;;;;;;8.20;2.28;;;;;;;18.61;37.25;101506.47;5114470;28;20059;-70
2022/09/06 08:49:59;;;;;;;12.55;2.70;;;;;;;18.73;36.71;101506.78;5114185;28;20135;-69
2022/09/06 08:52:43;;;;;;;6.13;2.35;;;;;;;18.43;37.61;101501.47;5114214;28;20123;-69
2022/09/06 08:55:32;;;;;;;10.63;2.47;;;;;;;18.13;38.28;101502.56;5114048;28;20089;-70
2022/09/06 08:58:33;;;;;;;7.28;2.47;;;;;;;17.91;38.88;101497.09;5114334;28;20059;-70
2022/09/06 09:01:08;;;;;;;5.32;2.47;;;;;;;18.07;38.39;101491.47;5113981;28;20122;-70
2022/09/06 09:03:43;;;;;;;11.80;2.67;;;;;;;18.19;37.98;101490.97;5114327;28;20599;-70
2022/09/06 09:06:10;;;;;;;7.13;2.15;;;;;;;18.43;37.49;101487.88;5112517;28;20086;-70
2022/09/06 09:08:43;;;;;;;8.85;2.80;;;;;;;18.07;38.37;101490.63;5113676;28;20156;-70
2022/09/06 09:11:17;;;;;;;7.40;2.75;;;;;;;17.81;38.39;101497.38;5113353;28;20139;-70
2022/09/06 09:13:52;;;;;;;8.45;2.53;;;;;;;18.48;38.14;101490.88;5112697;28;20067;-70
2022/09/06 09:16:21;;;;;;;6.18;2.55;;;;;;;18.94;37.19;101490.47;5113450;28;20063;-70
2022/09/06 09:18:55;;;;;;;5.78;2.53;;;;;;;19.30;36.26;101481.31;5112098;28;20040;-70
2022/09/06 09:21:23;;;;;;;7.00;2.60;;;;;;;19.49;35.98;101477.88;5113617;28;20134;-70
2022/09/06 09:24:00;;;;;;;10.57;2.90;;;;;;;19.21;36.25;101480.66;5093487;28;20040;-70
2022/09/06 09:26:34;;;;;;;4.30;2.45;;;;;;;19.20;36.53;101475.38;5093670;28;20064;-70
2022/09/06 09:29:05;;;;;;;9.40;2.85;;;;;;;19.48;36.23;101478.06;5093515;28;20074;-69
2022/09/06 09:31:46;;;;;;;9.90;3.10;;;;;;;19.37;36.28;101474.03;5092382;28;20524;-71
2022/09/06 09:34:32;;;;;;;6.80;2.42;;;;;;;19.14;36.74;101471.59;5092476;28;20072;-70
2022/09/06 09:37:21;;;;;;;8.32;2.53;;;;;;;19.23;36.77;101473.09;5092845;28;20043;-70
2022/09/06 09:40:40;;;;;;;9.07;3.25;;;;;;;19.26;36.75;101461.00;5092843;28;20048;-70
2022/09/06 09:43:15;;;;;;;10.85;2.72;;;;;;;19.13;36.85;101455.47;5092290;28;20044;-70
2022/09/06 09:45:42;;;;;;;9.38;2.30;;;;;;;18.88;37.34;101452.31;5092628;28;20098;-70
2022/09/06 09:48:39;;;;;;;6.60;2.67;;;;;;;18.85;37.64;101450.84;5093156;28;20064;-70
2022/09/06 09:51:18;;;;;;;10.55;3.17;;;;;;;18.78;37.79;101444.50;5070945;28;20094;-70
2022/09/06 09:53:55;;;;;;;9.13;2.53;;;;;;;18.30;39.11;101438.84;5090078;28;20063;-70
2022/09/06 09:57:00;;;;;;;11.57;3.08;;;;;;;19.08;37.95;101436.19;5092865;28;20076;-72
2022/09/06 09:59:41;;;;;;;11.55;2.85;;;;;;;18.16;38.91;101423.47;5030311;28;20097;-70
2022/09/06 10:02:26;;;;;;;11.07;2.92;;;;;;;18.22;39.06;101430.84;5029921;28;20053;-70
2022/09/06 10:05:00;;;;;;;5.40;2.67;;;;;;;18.09;39.26;101435.06;5028728;28;20508;-70
2022/09/06 10:07:27;;;;;;;5.45;2.90;;;;;;;18.38;38.80;101427.88;5030684;28;20069;-70
2022/09/06 10:10:00;;;;;;;8.38;3.13;;;;;;;18.28;39.10;101427.38;5030987;28;20066;-70
2022/09/06 10:12:37;;;;;;;16.73;3.28;;;;;;;18.12;39.53;101433.00;5030012;28;20073;-70
2022/09/06 10:15:06;;;;;;;6.97;2.88;;;;;;;18.28;39.44;101433.63;5030045;28;20077;-70
2022/09/06 10:17:34;;;;;;;10.07;2.70;;;;;;;18.26;39.32;101427.53;5029919;28;20065;-70
2022/09/06 10:20:06;;;;;;;8.38;2.97;;;;;;;18.30;39.20;101428.00;5031604;28;20042;-70
2022/09/06 10:22:58;;;;;;;12.40;3.25;;;;;;;18.53;38.73;101422.38;5029334;28;20484;-70
2022/09/06 10:25:51;;;;;;;9.57;3.40;;;;;;;18.79;38.55;101419.88;5029947;28;20064;-70
2022/09/06 10:28:37;;;;;;;21.23;5.78;;;;;;;18.62;38.71;101414.91;5028417;28;20069;-70
2022/09/06 10:31:32;;;;;;;15.13;4.57;;;;;;;18.58;39.17;101421.75;5076336;28;20480;-70
2022/09/06 10:34:30;;;;;;;13.27;4.40;;;;;;;18.74;38.68;101416.06;5091314;28;20509;-70
2022/09/06 10:37:11;;;;;;;8.05;3.63;;;;;;;18.99;38.45;101409.13;5087106;28;20461;-70
2022/09/06 10:39:55;;;;;;;;;;;;;;;18.74;38.51;101406.00;5088982;28;20448;-70
2022/09/06 10:42:37;;;;;;;8.48;2.95;;;;;;;18.97;38.17;101400.34;5091992;28;20276;-70
2022/09/06 10:45:28;;;;;;;11.27;3.30;;;;;;;18.81;38.29;101403.34;5090400;28;20047;-70
2022/09/06 10:47:57;;;;;;;5.05;3.10;;;;;;;18.72;38.16;101399.09;5091594;28;20131;-70
2022/09/06 10:50:40;;;;;;;13.27;3.45;;;;;;;19.22;37.60;101403.44;5091483;28;20043;-70
2022/09/06 10:53:16;;;;;;;9.02;3.15;;;;;;;19.11;37.69;101409.44;5074258;28;20131;-70
2022/09/06 10:55:45;;;;;;;15.05;3.60;;;;;;;19.09;37.58;101397.06;5092461;28;20044;-70
2022/09/06 10:58:24;;;;;;;8.17;3.83;;;;;;;19.13;37.67;101409.22;5092422;28;20059;-70
2022/09/06 11:00:52;;;;;;;11.32;3.45;;;;;;;19.42;36.87;101397.25;5092284;28;20340;-70
2022/09/06 11:03:41;;;;;;;6.82;2.92;;;;;;;19.70;36.36;101402.63;5092002;28;20442;-70
2022/09/06 11:06:34;;;;;;;7.82;3.25;;;;;;;20.43;35.22;101394.63;5091914;28;20437;-70
2022/09/06 11:09:26;;;;;;;10.70;3.17;;;;;;;20.50;35.06;101397.34;5076765;28;20063;-70
2022/09/06 11:12:09;;;;;;;13.57;3.28;;;;;;;20.21;35.26;101396.66;5086320;28;20123;-70
2022/09/06 11:14:38;;;;;;;12.15;3.20;;;;;;;20.03;35.69;101390.97;5092316;28;20071;-70
2022/09/06 11:17:11;;;;;;;8.50;2.80;;;;;;;20.15;35.36;101381.16;5092900;28;20130;-70
2022/09/06 11:19:45;;;;;;;6.93;2.70;;;;;;;19.62;36.17;101387.28;5092810;28;20474;-70
2022/09/06 11:22:32;;;;;;;8.93;3.20;;;;;;;19.20;37.09;101389.19;5091613;28;20067;-70
2022/09/06 11:25:26;;;;;;;13.88;3.10;;;;;;;19.62;36.59;101386.44;5093343;28;20452;-70
2022/09/06 11:27:56;;;;;;;12.50;3.70;;;;;;;19.53;36.95;101382.22;5088394;28;20074;-70
2022/09/06 11:30:25;;;;;;;13.93;3.45;;;;;;;19.55;36.88;101380.97;5079899;28;20052;-70
2022/09/06 11:33:04;;;;;;;6.35;3.58;;;;;;;19.80;36.66;101372.31;5090433;28;20081;-70
2022/09/06 11:35:33;;;;;;;14.50;3.03;;;;;;;19.24;37.11;101376.00;5091206;28;20122;-70
2022/09/06 11:38:19;;;;;;;8.27;3.50;;;;;;;19.48;36.95;101375.53;5090098;28;20130;-70
2022/09/06 11:40:50;;;;;;;14.30;3.28;;;;;;;19.56;36.66;101365.50;5089279;28;20461;-70
2022/09/06 11:43:41;;;;;;;14.50;3.47;;;;;;;19.63;36.75;101369.91;5090540;28;20048;-70
2022/09/06 11:46:08;;;;;;;10.30;3.33;;;;;;;19.64;36.83;101376.19;5090078;28;20119;-69
2022/09/06 11:49:28;;;;;;;8.18;3.30;;;;;;;19.69;36.42;101370.97;5091153;28;20463;-69
2022/09/06 11:51:55;;;;;;;12.07;3.40;;;;;;;19.60;36.63;101378.47;4988966;28;20425;-69
2022/09/06 11:54:23;;;;;;;8.38;3.17;;;;;;;19.39;37.21;101370.44;4989225;28;20133;-69